createdAt,value
2022-09-10T00:03:27.003Z,15.19
2022-09-10T00:11:05.705Z,15.12
2022-09-10T00:18:41.537Z,15.03
2022-09-10T00:26:21.655Z,15.01
2022-09-10T00:33:56.916Z,15.01
2022-09-10T00:41:31.544Z,14.97
2022-09-10T00:49:14.646Z,14.90
2022-09-10T00:56:49.555Z,14.85
2022-09-10T01:04:24.578Z,14.79
2022-09-10T01:12:22.351Z,14.74
2022-09-10T01:20:18.275Z,14.68
2022-09-10T01:27:55.866Z,14.60
2022-09-10T01:35:37.510Z,14.53
2022-09-10T01:43:13.315Z,14.46
2022-09-10T01:50:53.428Z,14.41
2022-09-10T01:58:34.672Z,14.33
2022-09-10T02:06:12.966Z,14.30
2022-09-10T02:13:48.266Z,14.25
2022-09-10T02:21:23.182Z,14.20
2022-09-10T02:29:01.831Z,14.15
2022-09-10T02:36:35.850Z,14.08
2022-09-10T02:44:11.063Z,14.00
2022-09-10T02:51:44.689Z,13.97
2022-09-10T02:59:19.750Z,13.94
2022-09-10T03:06:54.898Z,13.87
2022-09-10T03:14:30.324Z,13.84
2022-09-10T03:22:04.487Z,13.80
2022-09-10T03:29:39.502Z,13.69
2022-09-10T03:37:14.199Z,13.67
2022-09-10T03:44:49.210Z,13.62
2022-09-10T03:52:23.202Z,13.56
2022-09-10T03:59:58.755Z,13.52
2022-09-10T04:07:32.448Z,13.46
2022-09-10T04:15:09.160Z,13.35
2022-09-10T04:22:43.031Z,13.29
2022-09-10T04:30:19.435Z,13.25
2022-09-10T04:37:53.348Z,13.21
2022-09-10T04:45:29.582Z,13.19
2022-09-10T04:53:03.382Z,13.18
2022-09-10T05:00:39.351Z,13.16
2022-09-10T05:08:14.284Z,13.16
2022-09-10T05:15:49.534Z,13.18
2022-09-10T05:23:23.250Z,13.19
2022-09-10T05:30:58.433Z,13.21
2022-09-10T05:38:32.497Z,13.26
2022-09-10T05:46:08.521Z,13.29
2022-09-10T05:53:42.365Z,13.36
2022-09-10T06:01:17.884Z,13.44
2022-09-10T06:08:53.344Z,13.54
2022-09-10T06:16:28.629Z,13.66
2022-09-10T06:24:03.130Z,13.79
2022-09-10T06:31:38.298Z,13.90
2022-09-10T06:39:12.122Z,14.09
2022-09-10T06:54:41.142Z,14.50
2022-09-10T07:02:16.485Z,14.68
2022-09-10T07:09:50.302Z,14.87
2022-09-10T07:17:29.850Z,15.06
2022-09-10T07:25:07.163Z,15.27
2022-09-10T07:32:42.918Z,15.53
2022-09-10T07:40:16.832Z,15.76
2022-09-10T07:47:51.886Z,16.13
2022-09-10T07:55:26.065Z,16.44
2022-09-10T08:03:01.071Z,16.95
2022-09-10T08:10:34.561Z,17.37
2022-09-10T08:18:10.225Z,17.74
2022-09-10T08:25:51.490Z,18.17
2022-09-10T08:33:27.278Z,18.92
2022-09-10T08:41:02.134Z,19.10
2022-09-10T08:48:40.813Z,19.49
2022-09-10T08:56:17.856Z,19.76
2022-09-10T09:03:56.755Z,19.97
2022-09-10T09:11:40.907Z,20.03
2022-09-10T09:19:25.296Z,20.50
2022-09-10T09:27:09.882Z,20.24
2022-09-10T09:34:50.406Z,20.21
2022-09-10T09:42:31.540Z,19.94
2022-09-10T09:50:07.794Z,19.91
2022-09-10T09:57:42.857Z,20.25
2022-09-10T10:05:26.079Z,20.45
2022-09-10T10:12:59.790Z,20.71
2022-09-10T10:20:41.426Z,20.33
2022-09-10T10:28:21.666Z,20.18
2022-09-10T10:36:05.026Z,20.51
2022-09-10T10:43:50.339Z,20.59
2022-09-10T10:51:32.072Z,20.57
2022-09-10T10:59:21.159Z,20.40
2022-09-10T11:07:03.589Z,20.50
2022-09-10T11:14:43.495Z,20.57
2022-09-10T11:22:23.360Z,20.67
2022-09-10T11:30:04.204Z,20.58
2022-09-10T11:37:58.115Z,20.42
2022-09-10T11:45:41.306Z,20.52
2022-09-10T11:53:18.142Z,20.70
2022-09-10T12:01:02.782Z,20.68
2022-09-10T12:08:51.263Z,20.50
2022-09-10T12:16:35.146Z,20.49
2022-09-10T12:24:25.667Z,20.50
2022-09-10T12:32:36.014Z,20.53
2022-09-10T12:40:49.485Z,20.72
2022-09-10T12:48:26.921Z,20.74
2022-09-10T12:56:07.047Z,20.93
2022-09-10T13:03:54.928Z,21.01
2022-09-10T13:11:35.362Z,21.05
2022-09-10T13:19:46.770Z,21.09
2022-09-10T13:27:33.593Z,20.89
2022-09-10T13:35:49.938Z,20.69
2022-09-10T13:43:32.398Z,20.64
2022-09-10T13:51:18.357Z,20.59
2022-09-10T13:58:56.694Z,20.60
2022-09-10T14:06:31.742Z,21.15
2022-09-10T14:14:09.705Z,21.33
2022-09-10T14:21:44.169Z,21.62
2022-09-10T14:29:26.437Z,21.33
2022-09-10T14:37:01.684Z,21.51
2022-09-10T14:44:42.272Z,21.64
2022-09-10T14:52:16.194Z,21.86
2022-09-10T14:59:56.622Z,21.81
2022-09-10T15:07:31.361Z,21.68
2022-09-10T15:15:07.913Z,21.78
2022-09-10T15:22:41.943Z,21.74
2022-09-10T15:30:17.301Z,21.85
2022-09-10T15:37:51.420Z,21.72
2022-09-10T15:45:27.100Z,21.93
2022-09-10T15:53:01.223Z,21.98
2022-09-10T16:00:37.731Z,21.73
2022-09-10T16:08:11.486Z,21.47
2022-09-10T16:15:57.933Z,21.04
2022-09-10T16:23:34.906Z,20.90
2022-09-10T16:31:15.578Z,20.73
2022-09-10T16:38:54.465Z,20.58
2022-09-10T16:46:29.916Z,20.43
2022-09-10T16:54:06.058Z,20.30
2022-09-10T17:01:41.717Z,20.20
2022-09-10T17:09:16.305Z,20.08
2022-09-10T17:16:59.040Z,19.96
2022-09-10T17:24:34.542Z,19.82
2022-09-10T17:32:09.983Z,19.65
2022-09-10T17:39:43.976Z,19.42
2022-09-10T17:47:19.033Z,19.25
2022-09-10T17:54:54.048Z,19.10
2022-09-10T18:02:29.308Z,18.97
2022-09-10T18:10:03.404Z,18.88
2022-09-10T18:17:40.183Z,18.74
2022-09-10T18:25:17.056Z,18.64
2022-09-10T18:32:52.384Z,18.54
2022-09-10T18:40:26.129Z,18.45
2022-09-10T18:48:03.294Z,18.34
2022-09-10T18:55:38.379Z,18.23
2022-09-10T19:03:13.403Z,18.11
2022-09-10T19:10:46.995Z,17.99
2022-09-10T19:18:22.132Z,17.91
2022-09-10T19:26:01.875Z,17.81
2022-09-10T19:33:37.495Z,17.70
2022-09-10T19:41:13.599Z,17.61
2022-09-10T19:48:50.181Z,17.49
2022-09-10T19:56:26.970Z,17.37
2022-09-10T20:04:04.847Z,17.29
2022-09-10T20:11:39.378Z,17.20
2022-09-10T20:19:18.490Z,17.15
2022-09-10T20:26:52.355Z,17.05
2022-09-10T20:34:27.711Z,16.93
2022-09-10T20:42:01.554Z,16.88
2022-09-10T20:49:36.833Z,16.77
2022-09-10T20:57:11.462Z,16.69
2022-09-10T21:04:46.470Z,16.61
2022-09-10T21:12:19.926Z,16.52
2022-09-10T21:19:55.196Z,16.38
2022-09-10T21:27:29.172Z,16.26
2022-09-10T21:35:04.245Z,16.18
2022-09-10T21:42:37.714Z,16.11
2022-09-10T21:50:12.897Z,16.02
2022-09-10T21:57:46.630Z,16.00
2022-09-10T22:05:22.404Z,15.93
2022-09-10T22:12:56.402Z,15.88
2022-09-10T22:20:31.830Z,15.86
2022-09-10T22:28:05.590Z,15.83
2022-09-10T22:35:40.580Z,15.78
2022-09-10T22:43:14.290Z,15.73
2022-09-10T22:50:49.541Z,15.73
2022-09-10T22:58:23.334Z,15.69
2022-09-10T23:06:06.133Z,15.68
2022-09-10T23:13:40.287Z,15.68
2022-09-10T23:21:15.719Z,15.68
2022-09-10T23:28:49.970Z,15.68
2022-09-10T23:36:25.904Z,15.66
2022-09-10T23:43:59.897Z,15.68
2022-09-10T23:51:35.687Z,15.64
2022-09-10T23:59:09.948Z,15.62
